createdAt,value
2022-07-30T00:00:13.551Z,5.22
2022-07-30T00:02:52.567Z,5.23
2022-07-30T00:05:19.818Z,5.66
2022-07-30T00:07:47.065Z,5.19
2022-07-30T00:10:14.434Z,4.84
2022-07-30T00:12:41.692Z,5.15
2022-07-30T00:15:08.935Z,5.66
2022-07-30T00:17:36.205Z,4.98
2022-07-30T00:20:03.449Z,4.38
2022-07-30T00:22:31.252Z,4.07
2022-07-30T00:24:58.675Z,4.68
2022-07-30T00:27:25.923Z,4.82
2022-07-30T00:29:53.162Z,5.70
2022-07-30T00:32:20.428Z,5.31
2022-07-30T00:34:47.670Z,5.08
2022-07-30T00:37:14.923Z,5.13
2022-07-30T00:39:42.190Z,5.37
2022-07-30T00:42:09.439Z,5.57
2022-07-30T00:44:36.675Z,5.29
2022-07-30T00:47:08.363Z,5.30
2022-07-30T00:49:35.641Z,5.04
2022-07-30T00:52:02.881Z,4.71
2022-07-30T00:54:30.136Z,5.04
2022-07-30T00:56:57.444Z,5.13
2022-07-30T00:59:24.940Z,4.77
2022-07-30T01:01:52.391Z,4.98
2022-07-30T01:04:19.687Z,4.78
2022-07-30T01:06:46.937Z,4.86
2022-07-30T01:09:14.209Z,4.88
2022-07-30T01:11:41.452Z,4.82
2022-07-30T01:14:08.683Z,5.17
2022-07-30T01:16:35.976Z,4.76
2022-07-30T01:19:05.109Z,4.57
2022-07-30T01:21:32.349Z,5.14
2022-07-30T01:23:59.611Z,5.08
2022-07-30T01:26:26.846Z,4.78
2022-07-30T01:28:54.083Z,4.91
2022-07-30T01:31:21.396Z,4.94
2022-07-30T01:33:48.684Z,5.06
2022-07-30T01:36:16.033Z,4.49
2022-07-30T01:38:43.278Z,4.72
2022-07-30T01:41:10.527Z,4.36
2022-07-30T01:43:37.802Z,4.75
2022-07-30T01:46:05.085Z,4.71
2022-07-30T01:48:32.355Z,4.71
2022-07-30T01:50:59.608Z,5.07
2022-07-30T01:53:26.849Z,5.36
2022-07-30T01:55:54.120Z,4.76
2022-07-30T01:58:21.404Z,4.62
2022-07-30T02:00:48.697Z,4.29
2022-07-30T02:03:16.045Z,4.13
2022-07-30T02:05:45.575Z,4.48
2022-07-30T02:08:12.842Z,4.02
2022-07-30T02:10:40.122Z,4.08
2022-07-30T02:13:07.359Z,4.39
2022-07-30T02:15:34.716Z,4.63
2022-07-30T02:18:01.987Z,4.59
2022-07-30T02:20:29.226Z,4.49
2022-07-30T02:22:56.600Z,4.33
2022-07-30T02:25:23.866Z,4.49
2022-07-30T02:27:51.118Z,4.01
2022-07-30T02:30:18.359Z,3.98
2022-07-30T02:32:45.615Z,4.64
2022-07-30T02:35:12.859Z,4.56
2022-07-30T02:37:43.759Z,4.55
2022-07-30T02:40:11.570Z,4.20
2022-07-30T02:42:38.829Z,4.25
2022-07-30T02:45:06.082Z,4.58
2022-07-30T02:47:33.328Z,4.18
2022-07-30T02:50:00.587Z,4.16
2022-07-30T02:52:27.844Z,4.72
2022-07-30T02:54:55.080Z,4.57
2022-07-30T02:57:22.355Z,4.32
2022-07-30T02:59:49.622Z,3.75
2022-07-30T03:02:16.907Z,3.92
2022-07-30T03:04:44.173Z,3.93
2022-07-30T03:07:16.422Z,3.49
2022-07-30T03:09:51.353Z,3.65
2022-07-30T03:12:19.533Z,3.62
2022-07-30T03:14:46.792Z,3.82
2022-07-30T03:17:14.028Z,4.14
2022-07-30T03:19:41.271Z,3.91
2022-07-30T03:22:08.535Z,4.05
2022-07-30T03:24:35.771Z,4.20
2022-07-30T03:27:03.238Z,4.06
2022-07-30T03:29:30.801Z,3.87
2022-07-30T03:31:58.132Z,3.88
2022-07-30T03:34:27.508Z,3.78
2022-07-30T03:36:56.069Z,3.85
2022-07-30T03:39:23.321Z,3.87
2022-07-30T03:41:50.574Z,3.73
2022-07-30T03:44:17.847Z,3.89
2022-07-30T03:46:45.172Z,3.49
2022-07-30T03:49:12.580Z,3.63
2022-07-30T03:51:39.877Z,3.79
2022-07-30T03:54:11.627Z,3.64
2022-07-30T03:56:40.493Z,3.89
2022-07-30T03:59:07.741Z,3.86
2022-07-30T04:01:35.053Z,4.08
2022-07-30T04:04:02.641Z,4.15
2022-07-30T04:06:29.944Z,4.25
2022-07-30T04:08:57.242Z,4.26
2022-07-30T04:11:41.437Z,4.20
2022-07-30T04:14:23.105Z,3.91
2022-07-30T04:16:50.384Z,4.00
2022-07-30T04:19:17.672Z,3.92
2022-07-30T04:21:44.937Z,3.80
2022-07-30T04:24:12.212Z,3.72
2022-07-30T04:26:39.443Z,3.71
2022-07-30T04:29:06.695Z,3.90
2022-07-30T04:31:33.985Z,3.70
2022-07-30T04:34:07.231Z,3.57
2022-07-30T04:36:34.505Z,4.00
2022-07-30T04:39:01.740Z,3.66
2022-07-30T04:41:28.972Z,3.53
2022-07-30T04:44:11.820Z,3.49
2022-07-30T04:46:39.109Z,3.63
2022-07-30T04:49:06.409Z,3.49
2022-07-30T04:51:33.713Z,3.61
2022-07-30T04:54:00.950Z,3.84
2022-07-30T04:56:28.203Z,3.84
2022-07-30T04:58:55.456Z,3.65
2022-07-30T05:01:22.789Z,3.98
2022-07-30T05:03:50.064Z,3.75
2022-07-30T05:06:17.301Z,3.71
2022-07-30T05:08:44.563Z,3.88
2022-07-30T05:11:11.815Z,4.30
2022-07-30T05:13:39.061Z,3.96
2022-07-30T05:16:08.049Z,3.96
2022-07-30T05:18:35.327Z,4.20
2022-07-30T05:21:02.603Z,3.86
2022-07-30T05:23:29.847Z,3.84
2022-07-30T05:25:57.180Z,3.61
2022-07-30T05:28:24.440Z,3.93
2022-07-30T05:30:51.718Z,4.00
2022-07-30T05:33:19.054Z,3.65
2022-07-30T05:35:46.316Z,3.55
2022-07-30T05:38:13.557Z,3.69
2022-07-30T05:40:42.818Z,3.90
2022-07-30T05:43:10.090Z,3.72
2022-07-30T05:45:37.363Z,3.75
2022-07-30T05:48:04.615Z,3.95
2022-07-30T05:50:31.903Z,3.51
2022-07-30T05:52:59.149Z,3.67
2022-07-30T05:55:26.442Z,3.82
2022-07-30T05:57:53.675Z,3.83
2022-07-30T06:00:21.073Z,3.84
2022-07-30T06:02:48.345Z,3.42
2022-07-30T06:05:16.555Z,3.65
2022-07-30T06:07:43.788Z,3.52
2022-07-30T06:10:11.052Z,3.63
2022-07-30T06:12:38.297Z,3.66
2022-07-30T06:15:05.541Z,3.86
2022-07-30T06:17:41.216Z,3.87
2022-07-30T06:20:08.902Z,3.96
2022-07-30T06:22:36.151Z,3.80
2022-07-30T06:25:03.388Z,3.46
2022-07-30T06:27:36.598Z,3.93
2022-07-30T06:30:06.557Z,4.12
2022-07-30T06:32:33.815Z,3.63
2022-07-30T06:35:04.511Z,3.46
2022-07-30T06:38:00.677Z,3.57
2022-07-30T06:40:19.663Z,3.30
2022-07-30T06:42:46.942Z,3.77
2022-07-30T06:45:14.187Z,3.64
2022-07-30T06:47:41.430Z,3.71
2022-07-30T06:50:08.763Z,3.36
2022-07-30T06:52:36.427Z,3.55
2022-07-30T06:55:03.677Z,3.28
2022-07-30T06:57:31.033Z,3.41
2022-07-30T07:00:01.892Z,3.42
2022-07-30T07:02:29.824Z,3.43
2022-07-30T07:04:57.084Z,3.65
2022-07-30T07:07:40.919Z,3.38
2022-07-30T07:10:08.928Z,3.55
2022-07-30T07:12:36.175Z,3.51
2022-07-30T07:15:04.306Z,3.61
2022-07-30T07:17:31.578Z,3.51
2022-07-30T07:19:59.990Z,3.71
2022-07-30T07:22:29.099Z,3.71
2022-07-30T07:24:56.364Z,3.60
2022-07-30T07:27:23.648Z,3.66
2022-07-30T07:30:01.650Z,3.61
2022-07-30T07:32:33.127Z,3.83
2022-07-30T07:35:00.391Z,3.88
2022-07-30T07:37:27.743Z,4.00
2022-07-30T07:39:54.983Z,3.79
2022-07-30T07:42:22.215Z,4.15
2022-07-30T07:44:49.601Z,3.63
2022-07-30T07:47:16.847Z,3.97
2022-07-30T07:49:44.094Z,3.55
2022-07-30T07:52:11.442Z,3.55
2022-07-30T07:54:40.674Z,3.58
2022-07-30T07:57:07.932Z,3.62
2022-07-30T07:59:39.706Z,3.71
2022-07-30T08:02:08.030Z,3.54
2022-07-30T08:04:35.721Z,3.68
2022-07-30T08:07:03.674Z,3.55
2022-07-30T08:09:43.513Z,3.34
2022-07-30T08:12:11.777Z,3.51
2022-07-30T08:14:39.022Z,3.48
2022-07-30T08:17:06.704Z,3.62
2022-07-30T08:19:34.477Z,3.47
2022-07-30T08:22:01.743Z,3.63
2022-07-30T08:24:28.989Z,3.35
2022-07-30T08:26:56.251Z,3.25
2022-07-30T08:29:23.495Z,3.16
2022-07-30T08:31:50.751Z,2.98
2022-07-30T08:34:18.020Z,3.33
2022-07-30T08:36:45.290Z,3.26
2022-07-30T08:39:12.547Z,3.43
2022-07-30T08:41:39.826Z,3.09
2022-07-30T08:44:12.634Z,3.20
2022-07-30T08:46:40.287Z,3.06
2022-07-30T08:49:10.961Z,3.05
2022-07-30T08:51:38.791Z,3.06
2022-07-30T08:54:06.035Z,3.41
2022-07-30T08:56:33.284Z,3.11
2022-07-30T08:59:00.549Z,3.28
2022-07-30T09:01:27.789Z,3.38
2022-07-30T09:03:55.209Z,3.23
2022-07-30T09:06:22.505Z,2.99
2022-07-30T09:08:49.741Z,2.72
2022-07-30T09:11:17.000Z,2.85
2022-07-30T09:13:44.246Z,2.96
2022-07-30T09:16:11.529Z,2.78
2022-07-30T09:18:38.801Z,2.78
2022-07-30T09:21:06.050Z,2.86
2022-07-30T09:23:33.317Z,2.86
2022-07-30T09:26:00.599Z,2.80
2022-07-30T09:28:27.865Z,2.85
2022-07-30T09:30:55.132Z,2.57
2022-07-30T09:33:22.367Z,2.62
2022-07-30T09:35:50.704Z,2.56
2022-07-30T09:38:17.957Z,2.59
2022-07-30T09:40:45.236Z,2.66
2022-07-30T09:43:13.227Z,2.92
2022-07-30T09:45:40.505Z,2.80
2022-07-30T09:48:24.158Z,2.82
2022-07-30T09:50:51.450Z,2.53
2022-07-30T09:53:18.712Z,2.81
2022-07-30T09:55:47.710Z,2.58
2022-07-30T09:58:20.036Z,2.66
2022-07-30T10:03:38.428Z,2.61
2022-07-30T10:06:11.819Z,2.70
2022-07-30T10:08:39.271Z,2.66
2022-07-30T10:11:09.559Z,2.57
2022-07-30T10:13:37.087Z,2.50
2022-07-30T10:16:04.325Z,2.61
2022-07-30T10:18:33.888Z,2.81
2022-07-30T10:21:01.823Z,2.49
2022-07-30T10:23:33.028Z,2.75
2022-07-30T10:26:00.390Z,2.65
2022-07-30T10:28:38.447Z,2.52
2022-07-30T10:31:08.463Z,2.59
2022-07-30T10:33:54.341Z,2.49
2022-07-30T10:36:21.730Z,2.46
2022-07-30T10:38:52.616Z,2.56
2022-07-30T10:41:42.082Z,2.48
2022-07-30T10:44:07.473Z,2.24
2022-07-30T10:46:35.422Z,2.30
2022-07-30T10:49:02.952Z,2.28
2022-07-30T10:51:38.958Z,2.37
2022-07-30T10:54:06.196Z,2.27
2022-07-30T10:56:39.090Z,2.76
2022-07-30T10:59:07.952Z,2.38
2022-07-30T11:01:35.364Z,2.26
2022-07-30T11:04:03.864Z,2.30
2022-07-30T11:06:34.075Z,2.18
2022-07-30T11:09:01.775Z,2.36
2022-07-30T11:12:01.015Z,2.51
2022-07-30T11:14:16.251Z,2.20
2022-07-30T11:16:43.504Z,2.71
2022-07-30T11:21:58.036Z,2.29
2022-07-30T11:24:25.268Z,2.46
2022-07-30T11:26:52.503Z,2.21
2022-07-30T11:29:19.862Z,2.30
2022-07-30T11:32:03.984Z,2.28
2022-07-30T11:34:33.904Z,2.05
2022-07-30T11:37:01.234Z,3.34
2022-07-30T11:39:46.607Z,4.80
2022-07-30T11:42:13.868Z,2.52
2022-07-30T11:44:41.125Z,2.99
2022-07-30T11:47:08.379Z,2.91
2022-07-30T11:49:35.653Z,2.42
2022-07-30T11:52:03.240Z,2.66
2022-07-30T11:54:30.788Z,2.50
2022-07-30T11:57:03.661Z,2.57
2022-07-30T11:59:31.742Z,2.38
2022-07-30T12:01:59.478Z,2.49
2022-07-30T12:04:27.009Z,2.56
2022-07-30T12:06:54.266Z,3.38
2022-07-30T12:09:21.550Z,2.60
2022-07-30T12:11:49.008Z,2.36
2022-07-30T12:14:16.243Z,2.45
2022-07-30T12:16:43.598Z,2.58
2022-07-30T12:19:10.852Z,2.75
2022-07-30T12:21:38.098Z,2.84
2022-07-30T12:24:05.376Z,2.62
2022-07-30T12:26:32.619Z,2.41
2022-07-30T12:28:59.872Z,2.55
2022-07-30T12:31:27.156Z,2.49
2022-07-30T12:33:54.401Z,2.45
2022-07-30T12:36:23.301Z,2.27
2022-07-30T12:38:50.562Z,2.47
2022-07-30T12:41:17.833Z,2.68
2022-07-30T12:43:45.082Z,2.87
2022-07-30T12:46:15.053Z,2.03
2022-07-30T12:48:42.588Z,2.22
2022-07-30T12:51:10.701Z,2.19
2022-07-30T12:53:37.947Z,2.23
2022-07-30T12:56:05.218Z,2.27
2022-07-30T12:58:32.479Z,2.39
2022-07-30T13:00:59.726Z,2.53
2022-07-30T13:03:26.976Z,2.47
2022-07-30T13:05:55.268Z,2.58
2022-07-30T13:08:23.087Z,2.33
2022-07-30T13:10:50.353Z,2.53
2022-07-30T13:13:17.636Z,2.55
2022-07-30T13:15:53.914Z,2.36
2022-07-30T13:18:21.639Z,2.50
2022-07-30T13:20:48.891Z,2.27
2022-07-30T13:23:16.132Z,2.60
2022-07-30T13:25:43.402Z,2.43
2022-07-30T13:28:10.651Z,2.20
2022-07-30T13:30:37.896Z,2.23
2022-07-30T13:33:05.167Z,2.19
2022-07-30T13:35:32.405Z,2.13
2022-07-30T13:38:01.673Z,2.34
2022-07-30T13:40:28.904Z,2.09
2022-07-30T13:42:56.140Z,2.13
2022-07-30T13:45:23.394Z,2.21
2022-07-30T13:47:50.647Z,2.07
2022-07-30T13:50:19.073Z,2.32
2022-07-30T13:52:46.325Z,2.13
2022-07-30T13:55:13.599Z,2.27
2022-07-30T13:57:40.866Z,2.46
2022-07-30T14:00:12.328Z,2.31
2022-07-30T14:02:39.573Z,2.44
2022-07-30T14:05:06.846Z,2.38
2022-07-30T14:07:34.138Z,2.42
2022-07-30T14:10:01.597Z,2.24
2022-07-30T14:12:28.885Z,2.20
2022-07-30T14:14:56.130Z,2.23
2022-07-30T14:17:23.409Z,2.27
2022-07-30T14:19:50.658Z,2.41
2022-07-30T14:22:17.899Z,2.22
2022-07-30T14:24:45.170Z,2.33
2022-07-30T14:27:12.426Z,2.37
2022-07-30T14:29:39.687Z,2.38
2022-07-30T14:32:06.965Z,2.20
2022-07-30T14:34:34.218Z,2.24
2022-07-30T14:37:02.522Z,2.00
2022-07-30T14:39:30.057Z,2.19
2022-07-30T14:41:57.314Z,2.26
2022-07-30T14:44:24.574Z,2.44
2022-07-30T14:46:52.920Z,1.90
2022-07-30T14:49:20.506Z,2.02
2022-07-30T14:51:47.830Z,2.04
2022-07-30T14:54:15.085Z,2.18
2022-07-30T14:56:42.319Z,2.05
2022-07-30T14:59:09.577Z,2.31
2022-07-30T15:01:36.831Z,2.22
2022-07-30T15:04:04.111Z,2.30
2022-07-30T15:06:33.421Z,2.30
2022-07-30T15:09:00.666Z,2.21
2022-07-30T15:11:28.304Z,2.21
2022-07-30T15:13:58.425Z,2.12
2022-07-30T15:16:26.458Z,1.98
2022-07-30T15:18:53.687Z,2.11
2022-07-30T15:21:20.948Z,1.80
2022-07-30T15:23:48.194Z,2.07
2022-07-30T15:26:15.450Z,2.00
2022-07-30T15:28:42.738Z,2.02
2022-07-30T15:31:09.975Z,2.00
2022-07-30T15:33:37.338Z,2.12
2022-07-30T15:36:05.246Z,2.13
2022-07-30T15:38:32.519Z,2.12
2022-07-30T15:40:59.764Z,1.94
2022-07-30T15:43:26.997Z,2.02
2022-07-30T15:45:56.069Z,2.05
2022-07-30T15:48:26.821Z,2.06
2022-07-30T15:50:54.769Z,2.02
2022-07-30T15:53:22.004Z,1.67
2022-07-30T15:55:49.273Z,1.84
2022-07-30T15:58:16.540Z,1.97
2022-07-30T16:00:43.791Z,2.14
2022-07-30T16:03:11.044Z,2.00
2022-07-30T16:05:51.531Z,2.04
2022-07-30T16:08:19.838Z,2.12
2022-07-30T16:10:47.117Z,2.31
2022-07-30T16:13:14.509Z,2.14
2022-07-30T16:15:42.300Z,2.28
2022-07-30T16:18:09.565Z,2.24
2022-07-30T16:20:36.825Z,2.23
2022-07-30T16:23:04.065Z,2.16
2022-07-30T16:25:31.344Z,1.92
2022-07-30T16:27:58.619Z,2.24
2022-07-30T16:30:27.455Z,2.08
2022-07-30T16:32:57.038Z,2.20
2022-07-30T16:35:24.290Z,2.07
2022-07-30T16:37:53.558Z,2.11
2022-07-30T16:40:20.838Z,2.23
2022-07-30T16:42:48.075Z,2.40
2022-07-30T16:45:15.429Z,2.25
2022-07-30T16:47:42.688Z,2.46
2022-07-30T16:50:09.941Z,2.45
2022-07-30T16:52:37.183Z,2.41
2022-07-30T16:55:04.441Z,2.18
2022-07-30T16:57:31.688Z,2.21
2022-07-30T16:59:58.940Z,2.37
2022-07-30T17:02:26.201Z,2.55
2022-07-30T17:04:53.456Z,2.54
2022-07-30T17:07:20.729Z,2.50
2022-07-30T17:09:52.001Z,2.59
2022-07-30T17:12:19.914Z,2.49
2022-07-30T17:14:52.806Z,2.38
2022-07-30T17:17:20.117Z,2.45
2022-07-30T17:19:47.377Z,2.60
2022-07-30T17:22:14.655Z,2.74
2022-07-30T17:24:41.981Z,2.67
2022-07-30T17:27:09.219Z,2.41
2022-07-30T17:29:49.625Z,2.56
2022-07-30T17:32:17.677Z,2.38
2022-07-30T17:34:44.954Z,2.50
2022-07-30T17:37:12.212Z,2.43
2022-07-30T17:40:26.913Z,2.52
2022-07-30T17:42:26.669Z,2.43
2022-07-30T17:44:53.941Z,2.43
2022-07-30T17:47:21.189Z,2.32
2022-07-30T17:49:49.053Z,2.52
2022-07-30T17:52:16.395Z,2.49
2022-07-30T17:54:43.649Z,2.45
2022-07-30T17:57:12.882Z,2.34
2022-07-30T17:59:40.148Z,2.39
2022-07-30T18:02:07.487Z,2.34
2022-07-30T18:04:34.915Z,2.55
2022-07-30T18:07:02.271Z,2.38
2022-07-30T18:09:29.515Z,2.52
2022-07-30T18:12:03.676Z,2.55
2022-07-30T18:14:31.110Z,2.50
2022-07-30T18:16:58.378Z,2.44
2022-07-30T18:19:27.418Z,2.50
2022-07-30T18:21:54.822Z,2.35
2022-07-30T18:24:24.693Z,2.28
2022-07-30T18:26:52.263Z,2.58
2022-07-30T18:29:19.514Z,2.36
2022-07-30T18:31:48.243Z,2.43
2022-07-30T18:34:15.497Z,2.40
2022-07-30T18:36:42.731Z,2.71
2022-07-30T18:39:09.988Z,2.59
2022-07-30T18:41:37.227Z,2.57
2022-07-30T18:44:04.507Z,2.44
2022-07-30T18:46:31.757Z,2.65
2022-07-30T18:49:10.586Z,2.32
2022-07-30T18:51:46.214Z,2.45
2022-07-30T18:54:13.466Z,2.53
2022-07-30T18:56:40.733Z,2.59
2022-07-30T18:59:07.991Z,2.65
2022-07-30T19:01:35.253Z,2.53
2022-07-30T19:04:02.543Z,2.64
2022-07-30T19:06:29.798Z,2.61
2022-07-30T19:08:57.041Z,2.65
2022-07-30T19:11:24.304Z,2.74
2022-07-30T19:13:51.555Z,2.66
2022-07-30T19:16:18.810Z,2.91
2022-07-30T19:18:46.089Z,2.58
2022-07-30T19:21:14.234Z,2.64
2022-07-30T19:23:41.625Z,2.72
2022-07-30T19:26:08.873Z,2.77
2022-07-30T19:28:36.131Z,2.89
2022-07-30T19:31:03.360Z,2.82
2022-07-30T19:33:30.618Z,2.71
2022-07-30T19:35:57.923Z,2.59
2022-07-30T19:38:25.167Z,2.79
2022-07-30T19:40:52.413Z,2.67
2022-07-30T19:43:23.783Z,2.88
2022-07-30T19:45:51.405Z,2.85
2022-07-30T19:48:29.621Z,2.74
2022-07-30T19:50:58.039Z,2.98
2022-07-30T19:53:25.978Z,3.01
2022-07-30T19:55:53.390Z,2.87
2022-07-30T19:58:22.782Z,2.92
2022-07-30T20:00:52.771Z,3.23
2022-07-30T20:03:26.219Z,3.12
2022-07-30T20:05:59.869Z,3.04
2022-07-30T20:08:27.217Z,2.87
2022-07-30T20:10:57.888Z,3.05
2022-07-30T20:13:44.665Z,2.82
2022-07-30T20:16:13.183Z,3.10
2022-07-30T20:18:40.436Z,2.96
2022-07-30T20:21:12.637Z,2.78
2022-07-30T20:23:42.079Z,2.91
2022-07-30T20:26:12.500Z,2.91
2022-07-30T20:28:40.379Z,2.69
2022-07-30T20:31:08.031Z,2.93
2022-07-30T20:33:39.138Z,2.91
2022-07-30T20:36:09.779Z,2.76
2022-07-30T20:38:37.393Z,2.89
2022-07-30T20:41:09.975Z,2.99
2022-07-30T20:43:52.128Z,2.95
2022-07-30T20:46:23.405Z,3.11
2022-07-30T20:48:51.071Z,2.77
2022-07-30T20:51:18.399Z,2.87
2022-07-30T20:53:47.640Z,2.99
2022-07-30T20:56:19.258Z,2.93
2022-07-30T20:58:48.213Z,2.82
2022-07-30T21:01:17.446Z,2.89
2022-07-30T21:03:48.145Z,2.93
2022-07-30T21:06:16.300Z,2.97
2022-07-30T21:08:45.445Z,2.91
2022-07-30T21:11:12.874Z,2.76
2022-07-30T21:13:41.996Z,3.00
2022-07-30T21:16:16.240Z,2.90
2022-07-30T21:18:50.000Z,3.02
2022-07-30T21:21:17.731Z,2.99
2022-07-30T21:23:56.559Z,2.95
2022-07-30T21:26:23.885Z,2.72
2022-07-30T21:28:51.154Z,2.90
2022-07-30T21:31:19.481Z,2.80
2022-07-30T21:34:06.769Z,2.95
2022-07-30T21:36:35.270Z,2.92
2022-07-30T21:39:02.600Z,3.08
2022-07-30T21:41:39.919Z,3.09
2022-07-30T21:44:17.527Z,3.07
2022-07-30T21:46:44.951Z,3.12
2022-07-30T21:49:12.333Z,2.83
2022-07-30T21:51:41.639Z,3.15
2022-07-30T21:54:13.074Z,3.08
2022-07-30T21:56:44.417Z,3.07
2022-07-30T21:59:11.786Z,2.90
2022-07-30T22:01:39.078Z,2.99
2022-07-30T22:04:16.501Z,3.07
2022-07-30T22:06:43.950Z,2.72
2022-07-30T22:09:19.242Z,2.90
2022-07-30T22:12:00.923Z,3.07
2022-07-30T22:14:29.305Z,2.83
2022-07-30T22:16:56.615Z,3.09
2022-07-30T22:19:23.881Z,3.28
2022-07-30T22:21:53.502Z,3.01
2022-07-30T22:24:29.618Z,3.05
2022-07-30T22:26:57.495Z,3.21
2022-07-30T22:29:27.570Z,3.04
2022-07-30T22:32:02.281Z,2.88
2022-07-30T22:34:32.159Z,3.11
2022-07-30T22:36:59.396Z,3.15
2022-07-30T22:39:32.271Z,3.05
2022-07-30T22:42:13.872Z,2.93
2022-07-30T22:44:45.987Z,2.92
2022-07-30T22:47:18.842Z,3.17
2022-07-30T22:49:55.196Z,2.99
2022-07-30T22:52:29.129Z,3.02
2022-07-30T22:55:02.190Z,3.14
2022-07-30T22:57:37.716Z,2.99
2022-07-30T23:03:21.462Z,2.85
2022-07-30T23:05:55.161Z,3.05
2022-07-30T23:08:30.219Z,2.84
2022-07-30T23:10:58.027Z,3.27
2022-07-30T23:13:25.295Z,3.03
2022-07-30T23:15:52.535Z,3.11
2022-07-30T23:18:19.785Z,2.97
2022-07-30T23:20:47.048Z,2.96
2022-07-30T23:23:14.292Z,2.95
2022-07-30T23:25:41.540Z,3.08
2022-07-30T23:28:08.807Z,3.12
2022-07-30T23:30:36.047Z,3.22
2022-07-30T23:33:03.304Z,3.16
2022-07-30T23:35:30.899Z,3.07
2022-07-30T23:37:58.183Z,3.23
2022-07-30T23:40:25.420Z,3.35
2022-07-30T23:42:52.696Z,3.36
2022-07-30T23:45:19.943Z,2.94
2022-07-30T23:48:01.786Z,3.02
2022-07-30T23:50:30.519Z,3.27
2022-07-30T23:52:57.787Z,3.16
2022-07-30T23:55:25.023Z,3.22
2022-07-30T23:57:52.281Z,3.09
